Time;durP1;ratioP1;P1;durP2;ratioP2;P2;SDS_P1;SDS_P2;PMS_P1;PMS_P2;Temp;Humidity;BMP_temperature;BMP_pressure;BME280_temperature;BME280_humidity;BME280_pressure;Samples;Min_cycle;Max_cycle;Signal;HPM_P1;HPM_P2
2023/04/12 00:21:22;;;;;;;;;;;;;;;;;;;;;
2023/04/12 00:24:37;;;;;;;2.72;1.17;;;;;;;;;;6231682;22;20012;-80
2023/04/12 08:55:20;;;;;;;;;;;;;;;;;;;;;
2023/04/12 10:55:26;;;;;;;;;;;;;;;;;;;;;
2023/04/12 11:20:02;;;;;;;21.25;9.60;;;;;;;;;;6242937;23;20445;-82
2023/04/12 11:44:55;;;;;;;4.22;0.75;;;;;;;;;;6209721;23;20054;-82
2023/04/12 12:21:52;;;;;;;;;;;;;;;;;;;;;
2023/04/12 12:40:46;;;;;;;4.07;0.70;;;;;;;;;;6243846;22;20056;-82
2023/04/12 12:43:32;;;;;;;3.97;0.90;;;;;;;;;;6219529;23;20027;-82
2023/04/12 13:02:06;;;;;;;;;;;;;;;;;;;;;
2023/04/12 13:14:20;;;;;;;3.22;0.65;;;;;;;;;;6212837;23;20062;-82
2023/04/12 13:44:05;;;;;;;3.85;0.93;;;;;;;;;;6241773;23;20755;-82
2023/04/12 13:47:08;;;;;;;6.57;0.80;;;;;;;;;;6214985;23;20012;-82
2023/04/12 14:31:34;;;;;;;4.43;1.33;;;;;;;;;;6113718;23;20033;-82
2023/04/12 14:34:43;;;;;;;3.22;0.90;;;;;;;;;;6112979;23;20338;-82
2023/04/12 14:37:45;;;;;;;2.90;1.10;;;;;;;;;;6089768;23;20053;-82
2023/04/12 14:40:44;;;;;;;3.22;0.75;;;;;;;;;;6060954;23;20547;-82
2023/04/12 14:46:31;;;;;;;;;;;;;;;;;;;;;
2023/04/12 15:38:24;;;;;;;;;;;;;;;;;;;;;
2023/04/12 15:47:32;;;;;;;8.60;1.98;;;;;;;;;;6210905;23;20020;-82
2023/04/12 15:53:28;;;;;;;;;;;;;;;;;;;;;
2023/04/12 15:56:14;;;;;;;4.07;1.60;;;;;;;;;;6209965;23;20076;-83
2023/04/12 16:08:59;;;;;;;6.13;2.67;;;;;;;;;;6233956;23;20107;-82
2023/04/12 16:11:28;;;;;;;9.50;3.35;;;;;;;;;;6213764;23;20015;-82
2023/04/12 16:13:54;;;;;;;5.72;1.88;;;;;;;;;;6214893;23;20065;-82
2023/04/12 16:16:24;;;;;;;9.88;2.05;;;;;;;;;;6241194;23;20424;-82
2023/04/12 16:18:51;;;;;;;6.95;1.92;;;;;;;;;;6215625;23;20319;-82
2023/04/12 16:21:25;;;;;;;9.20;2.55;;;;;;;;;;6240870;23;20327;-82
2023/04/12 16:24:12;;;;;;;6.95;2.08;;;;;;;;;;6213894;23;20339;-82
2023/04/12 16:26:54;;;;;;;4.85;1.73;;;;;;;;;;6210412;23;20005;-82
2023/04/12 16:29:21;;;;;;;4.65;1.80;;;;;;;;;;6209347;23;20455;-80
2023/04/12 16:31:47;;;;;;;5.60;2.03;;;;;;;;;;6211747;23;20005;-81
2023/04/12 16:34:14;;;;;;;6.90;2.42;;;;;;;;;;6210728;23;20024;-81
2023/04/12 16:36:41;;;;;;;7.05;2.67;;;;;;;;;;6207773;23;20054;-81
2023/04/12 16:39:09;;;;;;;6.57;2.35;;;;;;;;;;6208371;23;20734;-81
2023/04/12 16:41:36;;;;;;;6.60;2.33;;;;;;;;;;6209081;23;20012;-81
2023/04/12 16:44:02;;;;;;;7.40;2.80;;;;;;;;;;6209176;23;20016;-82
2023/04/12 16:46:28;;;;;;;8.73;2.40;;;;;;;;;;6207648;23;20036;-80
2023/04/12 16:49:19;;;;;;;6.32;2.05;;;;;;;;;;6212574;23;20080;-82
2023/04/12 17:02:06;;;;;;;8.75;3.80;;;;;;;;;;6238808;23;20030;-78
2023/04/12 17:23:27;;;;;;;12.55;6.80;;;;;;;;;;6205512;22;20036;-84
2023/04/12 17:34:32;;;;;;;12.43;7.70;;;;;;;;;;6215759;23;20031;-81
2023/04/12 17:37:09;;;;;;;12.38;8.45;;;;;;;;;;6241894;23;20340;-80
2023/04/12 17:39:36;;;;;;;15.23;10.40;;;;;;;;;;6239485;23;20089;-79
2023/04/12 17:45:11;;;;;;;18.40;11.60;;;;;;;;;;6211633;23;20369;-79
2023/04/12 17:50:38;;;;;;;5.97;2.03;;;;;;;;;;6204020;22;20040;-82
2023/04/12 17:56:25;;;;;;;5.13;2.08;;;;;;;;;;6149477;23;19909;-80
2023/04/12 17:59:34;;;;;;;4.88;1.77;;;;;;;;;;6209199;22;20055;-80
2023/04/12 18:06:12;;;;;;;5.63;1.75;;;;;;;;;;6211305;23;20024;-83
2023/04/12 18:08:38;;;;;;;0.75;0.20;;;;;;;;;;6209406;22;20020;-82
2023/04/12 18:11:07;;;;;;;0.85;0.43;;;;;;;;;;6212413;23;20055;-82
2023/04/12 18:40:25;;;;;;;5.82;3.85;;;;;;;;;;6174208;23;20483;-80
2023/04/12 18:42:58;;;;;;;5.88;3.88;;;;;;;;;;6149284;23;20017;-80
2023/04/12 18:46:18;;;;;;;;;;;;;;;;;;;;;
2023/04/12 18:51:23;;;;;;;3.15;1.13;;;;;;;;;;6179775;23;20460;-81
2023/04/12 18:53:50;;;;;;;4.50;1.67;;;;;;;;;;6180886;23;20024;-80
2023/04/12 18:56:34;;;;;;;6.88;3.75;;;;;;;;;;6180776;23;20013;-81
2023/04/12 18:59:16;;;;;;;5.82;2.72;;;;;;;;;;6181339;23;20526;-79
2023/04/12 19:01:47;;;;;;;6.68;2.35;;;;;;;;;;6177839;23;20036;-80
2023/04/12 19:04:16;;;;;;;6.32;2.20;;;;;;;;;;6180520;23;20005;-80
2023/04/12 19:06:58;;;;;;;;;;;;;;;;;;;;;
2023/04/12 19:17:42;;;;;;;4.05;0.93;;;;;;;;;;6156403;23;20361;-79
2023/04/12 19:20:09;;;;;;;3.47;1.10;;;;;;;;;;6209026;23;20012;-80
2023/04/12 19:22:36;;;;;;;3.53;0.70;;;;;;;;;;6208843;23;20008;-82
2023/04/12 19:25:02;;;;;;;6.25;0.80;;;;;;;;;;6209067;23;20019;-82
2023/04/12 19:27:28;;;;;;;13.60;7.93;;;;;;;;;;6209023;23;20008;-82
2023/04/12 19:29:54;;;;;;;7.68;1.70;;;;;;;;;;6209139;23;20016;-83
2023/04/12 19:49:26;;;;;;;1.13;0.40;;;;;;;;;;6141921;23;20185;-81
2023/04/12 19:54:52;;;;;;;1.98;0.30;;;;;;;;;;6153829;23;20059;-83
2023/04/12 19:57:18;;;;;;;2.53;0.93;;;;;;;;;;6209254;23;20008;-82
2023/04/12 19:59:44;;;;;;;3.92;1.75;;;;;;;;;;6208291;23;20163;-83
2023/04/12 20:02:11;;;;;;;3.17;1.27;;;;;;;;;;6211231;23;20472;-83
2023/04/12 20:04:38;;;;;;;1.70;0.50;;;;;;;;;;6209138;23;20340;-83
2023/04/12 20:07:04;;;;;;;3.25;0.60;;;;;;;;;;6208902;23;20007;-83
2023/04/12 20:09:31;;;;;;;5.93;1.58;;;;;;;;;;6208359;23;20439;-82
2023/04/12 20:11:57;;;;;;;6.38;1.45;;;;;;;;;;6208938;23;20055;-83
2023/04/12 20:14:23;;;;;;;3.28;0.95;;;;;;;;;;6210976;23;20016;-82
2023/04/12 20:17:05;;;;;;;1.75;0.50;;;;;;;;;;6208266;23;20013;-83
2023/04/12 20:20:04;;;;;;;;;;;;;;;;;;;;;
2023/04/12 20:31:52;;;;;;;4.38;0.45;;;;;;;;;;6210906;23;20102;-81
2023/04/12 20:38:06;;;;;;;;;;;;;;;;;;;;;
2023/04/12 20:51:34;;;;;;;3.03;1.17;;;;;;;;;;6212143;23;20020;-84
2023/04/12 20:54:35;;;;;;;1.30;0.52;;;;;;;;;;6211359;23;20015;-84
2023/04/12 20:57:03;;;;;;;4.97;2.92;;;;;;;;;;6211732;23;20029;-81
2023/04/12 20:59:29;;;;;;;2.63;1.33;;;;;;;;;;6212364;23;20011;-81
2023/04/12 21:01:55;;;;;;;4.22;0.70;;;;;;;;;;6211851;23;20023;-81
2023/04/12 21:04:21;;;;;;;3.85;0.60;;;;;;;;;;6210500;23;20015;-81
2023/04/12 21:06:49;;;;;;;3.63;1.25;;;;;;;;;;6212121;23;20008;-81
2023/04/12 21:09:15;;;;;;;3.80;1.77;;;;;;;;;;6212416;23;20011;-81
2023/04/12 21:11:42;;;;;;;5.22;2.15;;;;;;;;;;6210147;23;20100;-81
2023/04/12 21:14:09;;;;;;;3.95;1.77;;;;;;;;;;6212278;23;20008;-80
2023/04/12 21:16:38;;;;;;;1.95;0.65;;;;;;;;;;6212128;23;20016;-81
2023/04/12 21:19:04;;;;;;;3.25;1.40;;;;;;;;;;6210641;23;20013;-81
2023/04/12 21:21:33;;;;;;;6.18;3.58;;;;;;;;;;6211179;23;20704;-81
2023/04/12 21:23:59;;;;;;;6.43;3.85;;;;;;;;;;6211691;23;20543;-81
2023/04/12 21:26:26;;;;;;;5.70;2.90;;;;;;;;;;6211552;23;20009;-81
2023/04/12 21:28:52;;;;;;;10.63;4.65;;;;;;;;;;6212537;23;20471;-81
2023/04/12 21:31:18;;;;;;;3.78;1.90;;;;;;;;;;6211706;23;20020;-81
2023/04/12 21:33:44;;;;;;;4.75;1.77;;;;;;;;;;6211735;23;20011;-81
2023/04/12 21:36:11;;;;;;;1.83;0.50;;;;;;;;;;6211450;23;20685;-81
2023/04/12 21:38:38;;;;;;;1.42;0.50;;;;;;;;;;6212098;23;20020;-81
2023/04/12 21:41:04;;;;;;;3.08;1.13;;;;;;;;;;6211502;23;20099;-81
2023/04/12 21:43:30;;;;;;;6.40;2.15;;;;;;;;;;6212427;23;20001;-81
2023/04/12 21:45:56;;;;;;;7.32;2.75;;;;;;;;;;6211436;23;20043;-81
2023/04/12 21:48:22;;;;;;;5.05;1.95;;;;;;;;;;6212471;23;20008;-81
2023/04/12 21:50:48;;;;;;;2.25;1.08;;;;;;;;;;6212208;23;20147;-80
2023/04/12 21:53:15;;;;;;;2.35;1.30;;;;;;;;;;6209972;23;20055;-81
2023/04/12 21:55:41;;;;;;;4.20;2.03;;;;;;;;;;6211951;23;20074;-81
2023/04/12 21:58:07;;;;;;;4.05;1.80;;;;;;;;;;6211903;23;20005;-81
2023/04/12 22:00:33;;;;;;;3.88;1.70;;;;;;;;;;6211682;23;20051;-80
2023/04/12 22:02:59;;;;;;;3.00;1.15;;;;;;;;;;6211723;23;20016;-81
2023/04/12 22:05:26;;;;;;;5.03;3.13;;;;;;;;;;6211587;23;20012;-80
2023/04/12 22:07:52;;;;;;;3.83;2.35;;;;;;;;;;6212195;23;20009;-81
2023/04/12 22:10:19;;;;;;;5.32;2.45;;;;;;;;;;6211734;23;20071;-81
2023/04/12 22:12:49;;;;;;;4.22;2.17;;;;;;;;;;6211950;23;20404;-81
2023/04/12 22:15:15;;;;;;;4.05;2.00;;;;;;;;;;6210972;23;20028;-80
2023/04/12 22:17:41;;;;;;;4.75;3.08;;;;;;;;;;6211780;23;20008;-80
2023/04/12 22:20:08;;;;;;;5.22;3.10;;;;;;;;;;6210833;23;20047;-80
2023/04/12 22:22:36;;;;;;;3.50;2.22;;;;;;;;;;6211807;23;20362;-81
2023/04/12 22:25:03;;;;;;;3.70;1.10;;;;;;;;;;6210942;23;20028;-80
2023/04/12 22:27:30;;;;;;;3.92;1.40;;;;;;;;;;6211324;23;20019;-80
2023/04/12 22:29:59;;;;;;;3.50;1.80;;;;;;;;;;6211730;23;20028;-80
2023/04/12 22:32:25;;;;;;;3.35;1.95;;;;;;;;;;6211493;23;20016;-79
2023/04/12 22:34:51;;;;;;;5.95;2.55;;;;;;;;;;6209550;23;20073;-80
2023/04/12 22:37:17;;;;;;;7.07;4.57;;;;;;;;;;6211164;23;20028;-79
2023/04/12 22:39:45;;;;;;;8.35;5.18;;;;;;;;;;6211996;23;20011;-80
2023/04/12 22:42:11;;;;;;;10.23;7.55;;;;;;;;;;6211346;23;20017;-80
2023/04/12 22:44:37;;;;;;;6.63;4.70;;;;;;;;;;6211567;23;20463;-80
2023/04/12 22:47:05;;;;;;;4.00;2.20;;;;;;;;;;6211049;23;20088;-80
2023/04/12 22:49:31;;;;;;;3.72;1.85;;;;;;;;;;6209174;23;20005;-80
2023/04/12 22:51:58;;;;;;;4.78;1.60;;;;;;;;;;6211937;23;20013;-80
2023/04/12 22:54:24;;;;;;;4.38;1.30;;;;;;;;;;6210461;23;20004;-80
2023/04/12 22:56:50;;;;;;;4.20;0.88;;;;;;;;;;6211745;23;20016;-81
2023/04/12 22:59:18;;;;;;;2.15;0.70;;;;;;;;;;6209542;23;20047;-80
2023/04/12 23:01:45;;;;;;;1.77;0.50;;;;;;;;;;6211639;23;20019;-80
2023/04/12 23:04:11;;;;;;;2.75;0.63;;;;;;;;;;6210895;23;20380;-80
2023/04/12 23:06:38;;;;;;;6.78;2.03;;;;;;;;;;6209564;23;20336;-80
2023/04/12 23:09:05;;;;;;;4.78;2.60;;;;;;;;;;6209814;23;20716;-80
2023/04/12 23:11:34;;;;;;;5.10;2.25;;;;;;;;;;6211473;23;20020;-80
2023/04/12 23:14:01;;;;;;;5.15;2.47;;;;;;;;;;6210682;23;20043;-80
2023/04/12 23:16:27;;;;;;;2.17;0.80;;;;;;;;;;6211485;23;20020;-80
2023/04/12 23:18:53;;;;;;;3.15;1.20;;;;;;;;;;6209641;23;20333;-80
2023/04/12 23:21:19;;;;;;;3.58;0.80;;;;;;;;;;6210961;23;20009;-80
2023/04/12 23:23:45;;;;;;;1.08;0.45;;;;;;;;;;6211224;23;20054;-80
2023/04/12 23:26:12;;;;;;;2.90;0.95;;;;;;;;;;6211018;23;20032;-80
2023/04/12 23:28:41;;;;;;;8.23;3.53;;;;;;;;;;6211746;23;20043;-81
2023/04/12 23:31:07;;;;;;;6.65;4.00;;;;;;;;;;6209474;23;20038;-81
2023/04/12 23:33:33;;;;;;;7.32;4.18;;;;;;;;;;6211258;23;20035;-81
2023/04/12 23:36:02;;;;;;;7.95;3.70;;;;;;;;;;6208589;23;20012;-81
2023/04/12 23:38:32;;;;;;;8.50;4.43;;;;;;;;;;6211238;23;20092;-80
2023/04/12 23:40:59;;;;;;;11.13;5.50;;;;;;;;;;6210744;23;20054;-80
2023/04/12 23:43:25;;;;;;;7.38;3.75;;;;;;;;;;6210906;23;20005;-80
2023/04/12 23:45:52;;;;;;;5.85;2.95;;;;;;;;;;6210377;23;20028;-80
2023/04/12 23:48:18;;;;;;;4.45;2.00;;;;;;;;;;6211232;23;20435;-80
2023/04/12 23:50:44;;;;;;;3.60;1.10;;;;;;;;;;6209384;23;20009;-80
2023/04/12 23:53:10;;;;;;;3.10;1.30;;;;;;;;;;6210306;23;20011;-80
2023/04/12 23:55:36;;;;;;;4.57;1.98;;;;;;;;;;6209085;23;20635;-80
2023/04/12 23:58:02;;;;;;;5.82;2.00;;;;;;;;;;6209111;23;20013;-80
